Lakeport, New Hampshire
Current Conditions -  °F | °C
As of 5:15 PM on Sunday 21 Dec 2014 (Local Time) from KLCI Reporting Station
Overcast Overcast  
Wind Chill: 30°   Ceiling: 3400
Heat Index: 30°   Visibility: 10mi
Dew Point: 21°   Wind: 0mph
Humidity: 69%   Direction: NA
Pressure: 30.3"   Gusts: NA
Location:  43.5478°N, 71.4074°W
Report Text: KLCI 212215Z AUTO 00000KT 10SM OVC034 M01/M06 A3030 RMK AO1
Loading
Personal Weather Stations






























Interactive Weather Map New forecast layout! Learn more

10-Day Weather Forecast

Advertisements
Track Severe Weather on mobile